sensor_id;sensor_type;location;lat;lon;timestamp;P1;durP1;ratioP1;P2;durP2;ratioP2
5416;SDS011;2731;50.754;12.990;2023-04-09T00:01:36;38.15;;;19.90;;
5416;SDS011;2731;50.754;12.990;2023-04-09T00:04:02;42.08;;;20.23;;
5416;SDS011;2731;50.754;12.990;2023-04-09T00:06:30;33.20;;;17.75;;
5416;SDS011;2731;50.754;12.990;2023-04-09T00:08:58;37.67;;;19.30;;
5416;SDS011;2731;50.754;12.990;2023-04-09T00:11:24;39.10;;;18.65;;
5416;SDS011;2731;50.754;12.990;2023-04-09T00:13:52;44.85;;;20.60;;
5416;SDS011;2731;50.754;12.990;2023-04-09T00:16:18;38.75;;;19.23;;
5416;SDS011;2731;50.754;12.990;2023-04-09T00:18:44;37.85;;;18.95;;
5416;SDS011;2731;50.754;12.990;2023-04-09T00:21:10;36.60;;;18.58;;
5416;SDS011;2731;50.754;12.990;2023-04-09T00:23:39;35.95;;;18.60;;
5416;SDS011;2731;50.754;12.990;2023-04-09T00:26:05;36.58;;;19.23;;
5416;SDS011;2731;50.754;12.990;2023-04-09T00:28:31;34.38;;;18.55;;
5416;SDS011;2731;50.754;12.990;2023-04-09T00:30:58;37.25;;;18.55;;
5416;SDS011;2731;50.754;12.990;2023-04-09T00:33:24;37.70;;;19.63;;
5416;SDS011;2731;50.754;12.990;2023-04-09T00:35:50;38.97;;;20.42;;
5416;SDS011;2731;50.754;12.990;2023-04-09T00:38:16;36.63;;;19.92;;
5416;SDS011;2731;50.754;12.990;2023-04-09T00:40:42;39.25;;;19.02;;
5416;SDS011;2731;50.754;12.990;2023-04-09T00:43:09;34.80;;;18.75;;
5416;SDS011;2731;50.754;12.990;2023-04-09T00:45:36;41.63;;;19.15;;
5416;SDS011;2731;50.754;12.990;2023-04-09T00:48:02;32.67;;;16.92;;
5416;SDS011;2731;50.754;12.990;2023-04-09T00:50:28;34.30;;;18.67;;
5416;SDS011;2731;50.754;12.990;2023-04-09T00:52:55;34.17;;;19.27;;
5416;SDS011;2731;50.754;12.990;2023-04-09T00:55:24;33.47;;;16.90;;
5416;SDS011;2731;50.754;12.990;2023-04-09T00:57:50;37.28;;;17.95;;
5416;SDS011;2731;50.754;12.990;2023-04-09T01:00:16;34.45;;;17.83;;
5416;SDS011;2731;50.754;12.990;2023-04-09T01:02:43;30.65;;;16.55;;
5416;SDS011;2731;50.754;12.990;2023-04-09T01:05:09;36.20;;;18.13;;
5416;SDS011;2731;50.754;12.990;2023-04-09T01:15:25;35.90;;;18.60;;
5416;SDS011;2731;50.754;12.990;2023-04-09T01:17:55;33.97;;;17.27;;
5416;SDS011;2731;50.754;12.990;2023-04-09T01:20:41;34.83;;;18.80;;
5416;SDS011;2731;50.754;12.990;2023-04-09T01:26:04;37.53;;;18.02;;
5416;SDS011;2731;50.754;12.990;2023-04-09T01:28:32;31.73;;;16.75;;
5416;SDS011;2731;50.754;12.990;2023-04-09T01:31:04;37.78;;;18.23;;
5416;SDS011;2731;50.754;12.990;2023-04-09T01:33:33;31.15;;;15.55;;
5416;SDS011;2731;50.754;12.990;2023-04-09T01:36:00;34.45;;;17.88;;
5416;SDS011;2731;50.754;12.990;2023-04-09T01:38:26;34.20;;;18.75;;
5416;SDS011;2731;50.754;12.990;2023-04-09T01:40:54;29.55;;;15.80;;
5416;SDS011;2731;50.754;12.990;2023-04-09T01:43:21;31.92;;;16.10;;
5416;SDS011;2731;50.754;12.990;2023-04-09T01:45:47;32.30;;;15.85;;
5416;SDS011;2731;50.754;12.990;2023-04-09T01:48:15;31.95;;;16.83;;
5416;SDS011;2731;50.754;12.990;2023-04-09T01:50:41;36.42;;;17.00;;
5416;SDS011;2731;50.754;12.990;2023-04-09T01:53:07;34.53;;;16.83;;
5416;SDS011;2731;50.754;12.990;2023-04-09T01:55:34;32.83;;;16.27;;
5416;SDS011;2731;50.754;12.990;2023-04-09T01:58:00;32.28;;;16.80;;
5416;SDS011;2731;50.754;12.990;2023-04-09T02:00:31;33.78;;;16.83;;
5416;SDS011;2731;50.754;12.990;2023-04-09T02:03:04;30.60;;;16.63;;
5416;SDS011;2731;50.754;12.990;2023-04-09T02:05:32;29.10;;;15.40;;
5416;SDS011;2731;50.754;12.990;2023-04-09T02:08:01;28.30;;;15.15;;
5416;SDS011;2731;50.754;12.990;2023-04-09T02:10:29;31.23;;;15.65;;
5416;SDS011;2731;50.754;12.990;2023-04-09T02:12:56;28.80;;;15.65;;
5416;SDS011;2731;50.754;12.990;2023-04-09T02:15:23;29.23;;;15.40;;
5416;SDS011;2731;50.754;12.990;2023-04-09T02:17:50;31.73;;;15.20;;
5416;SDS011;2731;50.754;12.990;2023-04-09T02:20:17;28.02;;;15.30;;
5416;SDS011;2731;50.754;12.990;2023-04-09T02:22:44;25.13;;;13.40;;
5416;SDS011;2731;50.754;12.990;2023-04-09T02:25:11;28.80;;;14.68;;
5416;SDS011;2731;50.754;12.990;2023-04-09T02:27:38;25.42;;;14.10;;
5416;SDS011;2731;50.754;12.990;2023-04-09T02:30:04;26.83;;;13.38;;
5416;SDS011;2731;50.754;12.990;2023-04-09T02:32:30;25.40;;;12.88;;
5416;SDS011;2731;50.754;12.990;2023-04-09T02:37:28;25.70;;;13.63;;
5416;SDS011;2731;50.754;12.990;2023-04-09T02:39:54;25.95;;;12.68;;
5416;SDS011;2731;50.754;12.990;2023-04-09T02:42:20;22.58;;;11.07;;
5416;SDS011;2731;50.754;12.990;2023-04-09T02:44:47;22.00;;;11.93;;
5416;SDS011;2731;50.754;12.990;2023-04-09T02:47:14;24.25;;;12.65;;
5416;SDS011;2731;50.754;12.990;2023-04-09T02:49:40;23.73;;;12.93;;
5416;SDS011;2731;50.754;12.990;2023-04-09T02:52:06;26.33;;;12.68;;
5416;SDS011;2731;50.754;12.990;2023-04-09T02:54:34;21.80;;;11.68;;
5416;SDS011;2731;50.754;12.990;2023-04-09T02:57:00;23.10;;;11.27;;
5416;SDS011;2731;50.754;12.990;2023-04-09T02:59:26;22.77;;;11.77;;
5416;SDS011;2731;50.754;12.990;2023-04-09T03:01:52;24.33;;;13.40;;
5416;SDS011;2731;50.754;12.990;2023-04-09T03:04:19;20.67;;;11.80;;
5416;SDS011;2731;50.754;12.990;2023-04-09T03:06:45;21.77;;;12.10;;
5416;SDS011;2731;50.754;12.990;2023-04-09T03:09:11;16.08;;;9.88;;
5416;SDS011;2731;50.754;12.990;2023-04-09T03:11:38;14.10;;;8.65;;
5416;SDS011;2731;50.754;12.990;2023-04-09T03:14:05;19.83;;;10.07;;
5416;SDS011;2731;50.754;12.990;2023-04-09T03:16:34;19.15;;;10.40;;
5416;SDS011;2731;50.754;12.990;2023-04-09T03:19:01;22.70;;;10.50;;
5416;SDS011;2731;50.754;12.990;2023-04-09T03:21:28;20.85;;;10.07;;
5416;SDS011;2731;50.754;12.990;2023-04-09T03:23:54;18.33;;;10.30;;
5416;SDS011;2731;50.754;12.990;2023-04-09T03:26:20;16.65;;;9.35;;
5416;SDS011;2731;50.754;12.990;2023-04-09T03:28:47;18.33;;;10.00;;
5416;SDS011;2731;50.754;12.990;2023-04-09T03:31:14;17.00;;;8.95;;
5416;SDS011;2731;50.754;12.990;2023-04-09T03:33:42;15.25;;;8.75;;
5416;SDS011;2731;50.754;12.990;2023-04-09T03:36:08;16.83;;;9.75;;
5416;SDS011;2731;50.754;12.990;2023-04-09T03:38:35;18.27;;;10.30;;
5416;SDS011;2731;50.754;12.990;2023-04-09T03:41:01;17.27;;;10.18;;
5416;SDS011;2731;50.754;12.990;2023-04-09T03:43:30;17.35;;;10.55;;
5416;SDS011;2731;50.754;12.990;2023-04-09T03:45:56;16.40;;;9.55;;
5416;SDS011;2731;50.754;12.990;2023-04-09T03:48:23;21.38;;;11.35;;
5416;SDS011;2731;50.754;12.990;2023-04-09T03:50:49;20.80;;;11.43;;
5416;SDS011;2731;50.754;12.990;2023-04-09T03:53:17;19.92;;;9.80;;
5416;SDS011;2731;50.754;12.990;2023-04-09T03:55:45;18.50;;;9.52;;
5416;SDS011;2731;50.754;12.990;2023-04-09T03:58:11;19.25;;;9.40;;
5416;SDS011;2731;50.754;12.990;2023-04-09T04:00:38;21.73;;;10.85;;
5416;SDS011;2731;50.754;12.990;2023-04-09T04:03:16;19.80;;;11.25;;
5416;SDS011;2731;50.754;12.990;2023-04-09T04:05:42;17.80;;;9.95;;
5416;SDS011;2731;50.754;12.990;2023-04-09T04:08:08;15.10;;;9.48;;
5416;SDS011;2731;50.754;12.990;2023-04-09T04:10:34;19.50;;;10.57;;
5416;SDS011;2731;50.754;12.990;2023-04-09T04:13:01;19.08;;;9.73;;
5416;SDS011;2731;50.754;12.990;2023-04-09T04:15:28;16.38;;;9.75;;
5416;SDS011;2731;50.754;12.990;2023-04-09T04:17:55;18.55;;;10.52;;
5416;SDS011;2731;50.754;12.990;2023-04-09T04:20:23;18.10;;;9.82;;
5416;SDS011;2731;50.754;12.990;2023-04-09T04:22:50;19.10;;;10.13;;
5416;SDS011;2731;50.754;12.990;2023-04-09T04:25:16;14.27;;;8.95;;
5416;SDS011;2731;50.754;12.990;2023-04-09T04:27:44;18.25;;;10.30;;
5416;SDS011;2731;50.754;12.990;2023-04-09T04:30:10;16.77;;;10.27;;
5416;SDS011;2731;50.754;12.990;2023-04-09T04:32:36;21.42;;;10.75;;
5416;SDS011;2731;50.754;12.990;2023-04-09T04:35:02;18.67;;;10.93;;
5416;SDS011;2731;50.754;12.990;2023-04-09T04:37:28;18.23;;;10.05;;
5416;SDS011;2731;50.754;12.990;2023-04-09T04:39:55;18.58;;;10.27;;
5416;SDS011;2731;50.754;12.990;2023-04-09T04:42:23;16.70;;;9.80;;
5416;SDS011;2731;50.754;12.990;2023-04-09T04:44:50;19.95;;;10.73;;
5416;SDS011;2731;50.754;12.990;2023-04-09T04:47:16;19.65;;;10.00;;
5416;SDS011;2731;50.754;12.990;2023-04-09T04:49:43;18.70;;;9.95;;
5416;SDS011;2731;50.754;12.990;2023-04-09T04:52:10;20.95;;;10.95;;
5416;SDS011;2731;50.754;12.990;2023-04-09T04:54:36;20.17;;;9.82;;
5416;SDS011;2731;50.754;12.990;2023-04-09T04:57:03;17.02;;;9.50;;
5416;SDS011;2731;50.754;12.990;2023-04-09T04:59:29;20.90;;;11.13;;
5416;SDS011;2731;50.754;12.990;2023-04-09T05:01:55;19.48;;;10.88;;
5416;SDS011;2731;50.754;12.990;2023-04-09T05:04:22;20.15;;;10.68;;
5416;SDS011;2731;50.754;12.990;2023-04-09T05:06:48;17.65;;;10.63;;
5416;SDS011;2731;50.754;12.990;2023-04-09T05:09:15;19.08;;;10.68;;
5416;SDS011;2731;50.754;12.990;2023-04-09T05:11:41;18.40;;;10.60;;
5416;SDS011;2731;50.754;12.990;2023-04-09T05:14:07;17.50;;;9.68;;
5416;SDS011;2731;50.754;12.990;2023-04-09T05:16:33;18.20;;;9.48;;
5416;SDS011;2731;50.754;12.990;2023-04-09T05:18:59;17.67;;;10.23;;
5416;SDS011;2731;50.754;12.990;2023-04-09T05:21:26;16.88;;;9.52;;
5416;SDS011;2731;50.754;12.990;2023-04-09T05:23:53;18.33;;;10.07;;
5416;SDS011;2731;50.754;12.990;2023-04-09T05:26:21;18.75;;;9.57;;
5416;SDS011;2731;50.754;12.990;2023-04-09T05:28:47;15.70;;;9.50;;
5416;SDS011;2731;50.754;12.990;2023-04-09T05:31:13;19.70;;;10.52;;
5416;SDS011;2731;50.754;12.990;2023-04-09T05:33:40;21.17;;;11.25;;
5416;SDS011;2731;50.754;12.990;2023-04-09T05:36:06;26.63;;;12.93;;
5416;SDS011;2731;50.754;12.990;2023-04-09T05:38:32;27.63;;;14.55;;
5416;SDS011;2731;50.754;12.990;2023-04-09T05:41:00;26.80;;;13.80;;
5416;SDS011;2731;50.754;12.990;2023-04-09T05:43:26;22.80;;;11.77;;
5416;SDS011;2731;50.754;12.990;2023-04-09T05:45:53;22.48;;;11.82;;
5416;SDS011;2731;50.754;12.990;2023-04-09T05:48:19;24.95;;;13.32;;
5416;SDS011;2731;50.754;12.990;2023-04-09T05:50:52;21.35;;;11.10;;
5416;SDS011;2731;50.754;12.990;2023-04-09T05:53:18;17.63;;;10.50;;
5416;SDS011;2731;50.754;12.990;2023-04-09T05:55:46;20.98;;;12.38;;
5416;SDS011;2731;50.754;12.990;2023-04-09T05:58:17;19.55;;;10.45;;
5416;SDS011;2731;50.754;12.990;2023-04-09T06:00:43;20.23;;;11.48;;
5416;SDS011;2731;50.754;12.990;2023-04-09T06:03:10;21.05;;;11.23;;
5416;SDS011;2731;50.754;12.990;2023-04-09T06:05:37;20.33;;;11.65;;
5416;SDS011;2731;50.754;12.990;2023-04-09T06:08:03;25.05;;;12.93;;
5416;SDS011;2731;50.754;12.990;2023-04-09T06:10:32;21.13;;;11.50;;
5416;SDS011;2731;50.754;12.990;2023-04-09T06:12:58;20.38;;;11.23;;
5416;SDS011;2731;50.754;12.990;2023-04-09T06:15:24;17.85;;;10.18;;
5416;SDS011;2731;50.754;12.990;2023-04-09T06:17:50;20.85;;;11.57;;
5416;SDS011;2731;50.754;12.990;2023-04-09T06:20:16;20.00;;;11.30;;
5416;SDS011;2731;50.754;12.990;2023-04-09T06:22:42;22.45;;;12.27;;
5416;SDS011;2731;50.754;12.990;2023-04-09T06:25:09;21.27;;;12.30;;
5416;SDS011;2731;50.754;12.990;2023-04-09T06:27:35;24.02;;;12.95;;
5416;SDS011;2731;50.754;12.990;2023-04-09T06:30:01;18.58;;;10.90;;
5416;SDS011;2731;50.754;12.990;2023-04-09T06:32:27;19.30;;;10.88;;
5416;SDS011;2731;50.754;12.990;2023-04-09T06:34:53;20.08;;;11.73;;
5416;SDS011;2731;50.754;12.990;2023-04-09T06:37:21;21.08;;;12.40;;
5416;SDS011;2731;50.754;12.990;2023-04-09T06:39:49;19.40;;;11.73;;
5416;SDS011;2731;50.754;12.990;2023-04-09T06:42:15;19.83;;;10.95;;
5416;SDS011;2731;50.754;12.990;2023-04-09T06:44:42;22.30;;;11.55;;
5416;SDS011;2731;50.754;12.990;2023-04-09T06:47:09;19.67;;;11.40;;
5416;SDS011;2731;50.754;12.990;2023-04-09T06:49:35;20.67;;;13.02;;
5416;SDS011;2731;50.754;12.990;2023-04-09T06:52:02;19.25;;;11.18;;
5416;SDS011;2731;50.754;12.990;2023-04-09T06:54:28;21.10;;;11.88;;
5416;SDS011;2731;50.754;12.990;2023-04-09T06:56:54;20.42;;;11.38;;
5416;SDS011;2731;50.754;12.990;2023-04-09T06:59:21;22.20;;;12.95;;
5416;SDS011;2731;50.754;12.990;2023-04-09T07:01:48;28.88;;;15.55;;
5416;SDS011;2731;50.754;12.990;2023-04-09T07:04:14;23.63;;;14.77;;
5416;SDS011;2731;50.754;12.990;2023-04-09T07:06:40;20.23;;;12.30;;
5416;SDS011;2731;50.754;12.990;2023-04-09T07:09:07;21.95;;;13.57;;
5416;SDS011;2731;50.754;12.990;2023-04-09T07:11:33;19.02;;;12.23;;
5416;SDS011;2731;50.754;12.990;2023-04-09T07:14:01;24.23;;;13.75;;
5416;SDS011;2731;50.754;12.990;2023-04-09T07:16:27;20.55;;;12.73;;
5416;SDS011;2731;50.754;12.990;2023-04-09T07:18:55;21.08;;;13.25;;
5416;SDS011;2731;50.754;12.990;2023-04-09T07:21:21;21.75;;;13.13;;
5416;SDS011;2731;50.754;12.990;2023-04-09T07:23:48;25.55;;;14.73;;
5416;SDS011;2731;50.754;12.990;2023-04-09T07:26:15;26.50;;;15.65;;
5416;SDS011;2731;50.754;12.990;2023-04-09T07:28:42;23.45;;;13.93;;
5416;SDS011;2731;50.754;12.990;2023-04-09T07:31:08;22.80;;;12.70;;
5416;SDS011;2731;50.754;12.990;2023-04-09T07:33:35;25.65;;;14.45;;
5416;SDS011;2731;50.754;12.990;2023-04-09T07:36:02;29.33;;;15.18;;
5416;SDS011;2731;50.754;12.990;2023-04-09T07:38:28;20.75;;;11.70;;
5416;SDS011;2731;50.754;12.990;2023-04-09T07:40:56;25.75;;;13.77;;
5416;SDS011;2731;50.754;12.990;2023-04-09T07:43:23;22.63;;;13.20;;
5416;SDS011;2731;50.754;12.990;2023-04-09T07:45:49;23.92;;;12.65;;
5416;SDS011;2731;50.754;12.990;2023-04-09T07:48:16;26.35;;;14.48;;
5416;SDS011;2731;50.754;12.990;2023-04-09T07:50:42;24.20;;;13.73;;
5416;SDS011;2731;50.754;12.990;2023-04-09T07:53:13;22.30;;;13.20;;
5416;SDS011;2731;50.754;12.990;2023-04-09T07:55:39;22.55;;;12.85;;
5416;SDS011;2731;50.754;12.990;2023-04-09T07:58:06;28.65;;;15.13;;
5416;SDS011;2731;50.754;12.990;2023-04-09T08:00:33;22.55;;;13.88;;
5416;SDS011;2731;50.754;12.990;2023-04-09T08:03:01;25.17;;;15.07;;
5416;SDS011;2731;50.754;12.990;2023-04-09T08:05:32;23.08;;;14.48;;
5416;SDS011;2731;50.754;12.990;2023-04-09T08:08:02;26.13;;;15.18;;
5416;SDS011;2731;50.754;12.990;2023-04-09T08:10:28;26.15;;;14.48;;
5416;SDS011;2731;50.754;12.990;2023-04-09T08:12:54;24.60;;;14.50;;
5416;SDS011;2731;50.754;12.990;2023-04-09T08:15:20;24.95;;;14.93;;
5416;SDS011;2731;50.754;12.990;2023-04-09T08:17:46;27.25;;;16.48;;
5416;SDS011;2731;50.754;12.990;2023-04-09T08:20:16;22.33;;;13.85;;
5416;SDS011;2731;50.754;12.990;2023-04-09T08:22:44;26.50;;;15.98;;
5416;SDS011;2731;50.754;12.990;2023-04-09T08:25:10;25.40;;;16.23;;
5416;SDS011;2731;50.754;12.990;2023-04-09T08:27:36;25.95;;;15.65;;
5416;SDS011;2731;50.754;12.990;2023-04-09T08:30:03;26.58;;;16.65;;
5416;SDS011;2731;50.754;12.990;2023-04-09T08:32:30;24.85;;;16.13;;
5416;SDS011;2731;50.754;12.990;2023-04-09T08:34:56;26.15;;;17.15;;
5416;SDS011;2731;50.754;12.990;2023-04-09T08:37:23;26.88;;;16.30;;
5416;SDS011;2731;50.754;12.990;2023-04-09T08:39:50;30.05;;;17.80;;
5416;SDS011;2731;50.754;12.990;2023-04-09T08:42:18;27.05;;;17.15;;
5416;SDS011;2731;50.754;12.990;2023-04-09T08:44:44;29.17;;;17.52;;
5416;SDS011;2731;50.754;12.990;2023-04-09T08:47:10;28.50;;;17.67;;
5416;SDS011;2731;50.754;12.990;2023-04-09T08:49:39;28.05;;;16.65;;
5416;SDS011;2731;50.754;12.990;2023-04-09T08:52:06;28.38;;;17.65;;
5416;SDS011;2731;50.754;12.990;2023-04-09T08:54:32;28.27;;;16.02;;
5416;SDS011;2731;50.754;12.990;2023-04-09T08:56:58;24.52;;;16.30;;
5416;SDS011;2731;50.754;12.990;2023-04-09T08:59:25;24.73;;;16.67;;
5416;SDS011;2731;50.754;12.990;2023-04-09T09:02:08;27.58;;;17.10;;
5416;SDS011;2731;50.754;12.990;2023-04-09T09:04:44;25.02;;;15.25;;
5416;SDS011;2731;50.754;12.990;2023-04-09T09:07:11;22.85;;;15.25;;
5416;SDS011;2731;50.754;12.990;2023-04-09T09:12:32;24.50;;;14.98;;
5416;SDS011;2731;50.754;12.990;2023-04-09T09:14:58;21.50;;;14.07;;
5416;SDS011;2731;50.754;12.990;2023-04-09T09:17:25;22.08;;;13.98;;
5416;SDS011;2731;50.754;12.990;2023-04-09T09:19:51;21.55;;;13.93;;
5416;SDS011;2731;50.754;12.990;2023-04-09T09:22:17;23.20;;;15.48;;
5416;SDS011;2731;50.754;12.990;2023-04-09T09:24:50;24.48;;;16.15;;
5416;SDS011;2731;50.754;12.990;2023-04-09T09:27:36;23.58;;;13.88;;
5416;SDS011;2731;50.754;12.990;2023-04-09T09:30:05;19.50;;;12.63;;
5416;SDS011;2731;50.754;12.990;2023-04-09T09:32:32;18.65;;;12.90;;
5416;SDS011;2731;50.754;12.990;2023-04-09T09:35:05;18.00;;;12.95;;
5416;SDS011;2731;50.754;12.990;2023-04-09T09:37:31;25.85;;;15.88;;
5416;SDS011;2731;50.754;12.990;2023-04-09T09:39:59;25.10;;;14.73;;
5416;SDS011;2731;50.754;12.990;2023-04-09T09:42:26;21.60;;;14.18;;
5416;SDS011;2731;50.754;12.990;2023-04-09T09:44:52;20.45;;;12.73;;
5416;SDS011;2731;50.754;12.990;2023-04-09T09:47:19;22.35;;;14.50;;
5416;SDS011;2731;50.754;12.990;2023-04-09T09:49:49;19.30;;;12.95;;
5416;SDS011;2731;50.754;12.990;2023-04-09T09:52:17;20.20;;;12.95;;
5416;SDS011;2731;50.754;12.990;2023-04-09T09:54:56;20.13;;;13.43;;
5416;SDS011;2731;50.754;12.990;2023-04-09T09:57:26;21.48;;;14.27;;
5416;SDS011;2731;50.754;12.990;2023-04-09T09:59:54;19.02;;;12.55;;
5416;SDS011;2731;50.754;12.990;2023-04-09T10:02:23;18.48;;;12.65;;
5416;SDS011;2731;50.754;12.990;2023-04-09T10:04:54;19.85;;;13.38;;
5416;SDS011;2731;50.754;12.990;2023-04-09T10:07:20;15.45;;;10.80;;
5416;SDS011;2731;50.754;12.990;2023-04-09T10:09:48;19.00;;;13.27;;
5416;SDS011;2731;50.754;12.990;2023-04-09T10:12:16;18.33;;;13.07;;
5416;SDS011;2731;50.754;12.990;2023-04-09T10:14:47;18.23;;;11.82;;
5416;SDS011;2731;50.754;12.990;2023-04-09T10:17:15;16.98;;;12.20;;
5416;SDS011;2731;50.754;12.990;2023-04-09T10:19:46;17.98;;;12.13;;
5416;SDS011;2731;50.754;12.990;2023-04-09T10:22:15;19.05;;;13.82;;
5416;SDS011;2731;50.754;12.990;2023-04-09T10:24:42;17.27;;;12.52;;
5416;SDS011;2731;50.754;12.990;2023-04-09T10:27:14;16.92;;;11.88;;
5416;SDS011;2731;50.754;12.990;2023-04-09T10:29:49;17.73;;;12.52;;
5416;SDS011;2731;50.754;12.990;2023-04-09T10:32:22;19.38;;;14.05;;
5416;SDS011;2731;50.754;12.990;2023-04-09T10:34:55;20.08;;;13.75;;
5416;SDS011;2731;50.754;12.990;2023-04-09T10:37:22;18.83;;;12.60;;
5416;SDS011;2731;50.754;12.990;2023-04-09T10:39:48;20.75;;;14.48;;
5416;SDS011;2731;50.754;12.990;2023-04-09T10:42:18;21.38;;;14.52;;
5416;SDS011;2731;50.754;12.990;2023-04-09T10:44:46;19.70;;;13.93;;
5416;SDS011;2731;50.754;12.990;2023-04-09T10:47:32;20.83;;;13.65;;
5416;SDS011;2731;50.754;12.990;2023-04-09T10:50:04;20.02;;;13.48;;
5416;SDS011;2731;50.754;12.990;2023-04-09T10:52:39;20.25;;;13.38;;
5416;SDS011;2731;50.754;12.990;2023-04-09T10:55:08;19.02;;;13.57;;
5416;SDS011;2731;50.754;12.990;2023-04-09T10:57:35;17.58;;;12.30;;
5416;SDS011;2731;50.754;12.990;2023-04-09T11:00:01;20.38;;;13.30;;
5416;SDS011;2731;50.754;12.990;2023-04-09T11:02:36;16.40;;;11.52;;
5416;SDS011;2731;50.754;12.990;2023-04-09T11:07:35;20.23;;;13.15;;
5416;SDS011;2731;50.754;12.990;2023-04-09T11:10:04;16.10;;;12.02;;
5416;SDS011;2731;50.754;12.990;2023-04-09T11:12:32;15.35;;;11.63;;
5416;SDS011;2731;50.754;12.990;2023-04-09T11:14:58;15.35;;;11.55;;
5416;SDS011;2731;50.754;12.990;2023-04-09T11:17:24;18.73;;;12.32;;
5416;SDS011;2731;50.754;12.990;2023-04-09T11:19:51;15.98;;;11.48;;
5416;SDS011;2731;50.754;12.990;2023-04-09T11:22:18;17.90;;;12.65;;
5416;SDS011;2731;50.754;12.990;2023-04-09T11:24:44;16.52;;;11.43;;
5416;SDS011;2731;50.754;12.990;2023-04-09T11:27:11;17.33;;;12.30;;
5416;SDS011;2731;50.754;12.990;2023-04-09T11:29:38;16.15;;;11.65;;
5416;SDS011;2731;50.754;12.990;2023-04-09T11:32:06;11.90;;;9.70;;
5416;SDS011;2731;50.754;12.990;2023-04-09T11:34:33;16.88;;;10.75;;
5416;SDS011;2731;50.754;12.990;2023-04-09T11:37:01;15.63;;;10.80;;
5416;SDS011;2731;50.754;12.990;2023-04-09T11:39:31;16.50;;;11.88;;
5416;SDS011;2731;50.754;12.990;2023-04-09T11:41:57;16.08;;;10.82;;
5416;SDS011;2731;50.754;12.990;2023-04-09T11:44:23;12.55;;;9.80;;
5416;SDS011;2731;50.754;12.990;2023-04-09T11:46:49;15.27;;;10.32;;
5416;SDS011;2731;50.754;12.990;2023-04-09T11:49:16;16.48;;;10.90;;
5416;SDS011;2731;50.754;12.990;2023-04-09T11:51:42;15.10;;;11.07;;
5416;SDS011;2731;50.754;12.990;2023-04-09T11:54:09;15.23;;;11.10;;
5416;SDS011;2731;50.754;12.990;2023-04-09T11:56:36;14.52;;;11.57;;
5416;SDS011;2731;50.754;12.990;2023-04-09T11:59:04;16.65;;;11.18;;
5416;SDS011;2731;50.754;12.990;2023-04-09T12:01:33;15.25;;;10.55;;
5416;SDS011;2731;50.754;12.990;2023-04-09T12:04:00;16.58;;;11.02;;
5416;SDS011;2731;50.754;12.990;2023-04-09T12:06:41;12.77;;;9.50;;
5416;SDS011;2731;50.754;12.990;2023-04-09T12:09:07;15.13;;;11.30;;
5416;SDS011;2731;50.754;12.990;2023-04-09T12:11:37;14.80;;;10.32;;
5416;SDS011;2731;50.754;12.990;2023-04-09T12:14:06;15.02;;;11.02;;
5416;SDS011;2731;50.754;12.990;2023-04-09T12:16:33;14.10;;;11.18;;
5416;SDS011;2731;50.754;12.990;2023-04-09T12:19:07;17.10;;;12.55;;
5416;SDS011;2731;50.754;12.990;2023-04-09T12:21:49;13.45;;;10.38;;
5416;SDS011;2731;50.754;12.990;2023-04-09T12:24:20;17.10;;;12.50;;
5416;SDS011;2731;50.754;12.990;2023-04-09T12:26:46;14.68;;;10.40;;
5416;SDS011;2731;50.754;12.990;2023-04-09T12:29:15;14.63;;;11.10;;
5416;SDS011;2731;50.754;12.990;2023-04-09T12:31:43;17.08;;;12.43;;
5416;SDS011;2731;50.754;12.990;2023-04-09T12:34:10;14.75;;;11.80;;
5416;SDS011;2731;50.754;12.990;2023-04-09T12:36:37;16.05;;;11.15;;
5416;SDS011;2731;50.754;12.990;2023-04-09T12:39:05;14.77;;;11.32;;
5416;SDS011;2731;50.754;12.990;2023-04-09T12:41:31;12.88;;;9.55;;
5416;SDS011;2731;50.754;12.990;2023-04-09T12:43:57;11.48;;;8.52;;
5416;SDS011;2731;50.754;12.990;2023-04-09T12:46:23;10.10;;;8.05;;
5416;SDS011;2731;50.754;12.990;2023-04-09T12:48:49;9.88;;;7.75;;
5416;SDS011;2731;50.754;12.990;2023-04-09T12:51:17;10.60;;;7.95;;
5416;SDS011;2731;50.754;12.990;2023-04-09T12:53:43;12.55;;;8.73;;
5416;SDS011;2731;50.754;12.990;2023-04-09T12:56:10;12.48;;;9.00;;
5416;SDS011;2731;50.754;12.990;2023-04-09T12:58:36;12.48;;;9.85;;
5416;SDS011;2731;50.754;12.990;2023-04-09T13:01:03;15.88;;;11.30;;
5416;SDS011;2731;50.754;12.990;2023-04-09T13:03:30;12.75;;;9.73;;
5416;SDS011;2731;50.754;12.990;2023-04-09T13:05:58;13.48;;;10.48;;
5416;SDS011;2731;50.754;12.990;2023-04-09T13:08:24;14.50;;;10.98;;
5416;SDS011;2731;50.754;12.990;2023-04-09T13:10:51;14.23;;;10.10;;
5416;SDS011;2731;50.754;12.990;2023-04-09T13:13:19;11.65;;;9.00;;
5416;SDS011;2731;50.754;12.990;2023-04-09T13:15:49;14.07;;;10.23;;
5416;SDS011;2731;50.754;12.990;2023-04-09T13:18:16;10.73;;;8.32;;
5416;SDS011;2731;50.754;12.990;2023-04-09T13:20:43;18.20;;;11.80;;
5416;SDS011;2731;50.754;12.990;2023-04-09T13:23:11;16.48;;;12.38;;
5416;SDS011;2731;50.754;12.990;2023-04-09T13:25:37;15.20;;;11.65;;
5416;SDS011;2731;50.754;12.990;2023-04-09T13:28:03;15.88;;;11.38;;
5416;SDS011;2731;50.754;12.990;2023-04-09T13:30:30;14.65;;;10.98;;
5416;SDS011;2731;50.754;12.990;2023-04-09T13:32:58;15.30;;;10.50;;
5416;SDS011;2731;50.754;12.990;2023-04-09T13:35:26;14.43;;;11.63;;
5416;SDS011;2731;50.754;12.990;2023-04-09T13:37:52;12.90;;;9.98;;
5416;SDS011;2731;50.754;12.990;2023-04-09T13:40:18;15.27;;;11.93;;
5416;SDS011;2731;50.754;12.990;2023-04-09T13:42:45;13.98;;;10.38;;
5416;SDS011;2731;50.754;12.990;2023-04-09T13:45:11;11.73;;;9.80;;
5416;SDS011;2731;50.754;12.990;2023-04-09T13:47:37;15.90;;;11.50;;
5416;SDS011;2731;50.754;12.990;2023-04-09T13:50:04;14.48;;;10.77;;
5416;SDS011;2731;50.754;12.990;2023-04-09T13:52:34;14.63;;;10.40;;
5416;SDS011;2731;50.754;12.990;2023-04-09T13:55:00;17.80;;;11.50;;
5416;SDS011;2731;50.754;12.990;2023-04-09T13:57:27;13.73;;;10.43;;
5416;SDS011;2731;50.754;12.990;2023-04-09T13:59:55;14.68;;;11.48;;
5416;SDS011;2731;50.754;12.990;2023-04-09T14:02:25;13.18;;;9.80;;
5416;SDS011;2731;50.754;12.990;2023-04-09T14:04:53;12.63;;;9.45;;
5416;SDS011;2731;50.754;12.990;2023-04-09T14:07:19;11.13;;;8.88;;
5416;SDS011;2731;50.754;12.990;2023-04-09T14:09:45;11.25;;;8.63;;
5416;SDS011;2731;50.754;12.990;2023-04-09T14:12:11;11.82;;;9.40;;
5416;SDS011;2731;50.754;12.990;2023-04-09T14:14:37;12.60;;;9.32;;
5416;SDS011;2731;50.754;12.990;2023-04-09T14:17:04;11.52;;;9.30;;
5416;SDS011;2731;50.754;12.990;2023-04-09T14:19:31;12.32;;;8.90;;
5416;SDS011;2731;50.754;12.990;2023-04-09T14:21:58;10.93;;;8.73;;
5416;SDS011;2731;50.754;12.990;2023-04-09T14:24:26;11.93;;;8.63;;
5416;SDS011;2731;50.754;12.990;2023-04-09T14:26:53;11.20;;;8.82;;
5416;SDS011;2731;50.754;12.990;2023-04-09T14:29:20;9.85;;;7.60;;
5416;SDS011;2731;50.754;12.990;2023-04-09T14:31:47;12.85;;;9.32;;
5416;SDS011;2731;50.754;12.990;2023-04-09T14:34:14;10.10;;;7.55;;
5416;SDS011;2731;50.754;12.990;2023-04-09T14:36:41;11.75;;;8.80;;
5416;SDS011;2731;50.754;12.990;2023-04-09T14:39:08;11.18;;;8.10;;
5416;SDS011;2731;50.754;12.990;2023-04-09T14:41:36;8.80;;;6.93;;
5416;SDS011;2731;50.754;12.990;2023-04-09T14:44:04;7.90;;;6.28;;
5416;SDS011;2731;50.754;12.990;2023-04-09T14:46:31;10.77;;;7.63;;
5416;SDS011;2731;50.754;12.990;2023-04-09T14:48:57;11.73;;;8.80;;
5416;SDS011;2731;50.754;12.990;2023-04-09T14:51:24;12.88;;;9.93;;
5416;SDS011;2731;50.754;12.990;2023-04-09T14:53:51;13.40;;;10.95;;
5416;SDS011;2731;50.754;12.990;2023-04-09T14:56:17;15.40;;;11.00;;